sensor_id;sensor_type;location;lat;lon;timestamp;P1;durP1;ratioP1;P2;durP2;ratioP2
62523;SDS011;53689;56.878;60.672;2023-01-29T00:00:12;7.55;;;4.82;;
62523;SDS011;53689;56.878;60.672;2023-01-29T00:02:41;7.97;;;4.55;;
62523;SDS011;53689;56.878;60.672;2023-01-29T00:05:08;6.47;;;4.50;;
62523;SDS011;53689;56.878;60.672;2023-01-29T00:07:54;9.23;;;4.82;;
62523;SDS011;53689;56.878;60.672;2023-01-29T00:10:23;7.13;;;5.05;;
62523;SDS011;53689;56.878;60.672;2023-01-29T00:12:51;7.22;;;4.95;;
62523;SDS011;53689;56.878;60.672;2023-01-29T00:15:19;6.63;;;4.28;;
62523;SDS011;53689;56.878;60.672;2023-01-29T00:17:47;11.00;;;5.30;;
62523;SDS011;53689;56.878;60.672;2023-01-29T00:20:15;7.82;;;4.50;;
62523;SDS011;53689;56.878;60.672;2023-01-29T00:22:43;7.90;;;4.50;;
62523;SDS011;53689;56.878;60.672;2023-01-29T00:25:12;7.35;;;4.63;;
62523;SDS011;53689;56.878;60.672;2023-01-29T00:27:40;6.40;;;4.05;;
62523;SDS011;53689;56.878;60.672;2023-01-29T00:30:08;7.70;;;4.97;;
62523;SDS011;53689;56.878;60.672;2023-01-29T00:32:37;6.72;;;4.30;;
62523;SDS011;53689;56.878;60.672;2023-01-29T00:35:05;8.23;;;4.47;;
62523;SDS011;53689;56.878;60.672;2023-01-29T00:37:34;7.20;;;4.60;;
62523;SDS011;53689;56.878;60.672;2023-01-29T00:40:02;6.53;;;4.30;;
62523;SDS011;53689;56.878;60.672;2023-01-29T00:42:32;7.23;;;4.60;;
62523;SDS011;53689;56.878;60.672;2023-01-29T00:45:00;7.60;;;4.50;;
62523;SDS011;53689;56.878;60.672;2023-01-29T00:47:27;9.00;;;4.88;;
62523;SDS011;53689;56.878;60.672;2023-01-29T00:49:55;7.63;;;4.25;;
62523;SDS011;53689;56.878;60.672;2023-01-29T00:52:23;7.88;;;4.90;;
62523;SDS011;53689;56.878;60.672;2023-01-29T00:54:51;6.90;;;4.55;;
62523;SDS011;53689;56.878;60.672;2023-01-29T00:57:19;6.75;;;4.63;;
62523;SDS011;53689;56.878;60.672;2023-01-29T00:59:49;7.97;;;5.20;;
62523;SDS011;53689;56.878;60.672;2023-01-29T01:02:16;10.20;;;5.80;;
62523;SDS011;53689;56.878;60.672;2023-01-29T01:04:45;6.30;;;4.32;;
62523;SDS011;53689;56.878;60.672;2023-01-29T01:07:12;7.82;;;5.13;;
62523;SDS011;53689;56.878;60.672;2023-01-29T01:09:40;8.10;;;5.18;;
62523;SDS011;53689;56.878;60.672;2023-01-29T01:12:07;7.22;;;4.53;;
62523;SDS011;53689;56.878;60.672;2023-01-29T01:14:35;7.35;;;4.70;;
62523;SDS011;53689;56.878;60.672;2023-01-29T01:17:04;6.22;;;4.30;;
62523;SDS011;53689;56.878;60.672;2023-01-29T01:19:32;7.95;;;5.07;;
62523;SDS011;53689;56.878;60.672;2023-01-29T01:22:00;7.60;;;4.97;;
62523;SDS011;53689;56.878;60.672;2023-01-29T01:24:28;13.55;;;5.65;;
62523;SDS011;53689;56.878;60.672;2023-01-29T01:26:55;8.18;;;4.57;;
62523;SDS011;53689;56.878;60.672;2023-01-29T01:29:23;8.02;;;5.03;;
62523;SDS011;53689;56.878;60.672;2023-01-29T01:31:51;7.05;;;4.55;;
62523;SDS011;53689;56.878;60.672;2023-01-29T01:34:21;7.30;;;5.07;;
62523;SDS011;53689;56.878;60.672;2023-01-29T01:36:49;6.85;;;4.25;;
62523;SDS011;53689;56.878;60.672;2023-01-29T01:39:17;8.70;;;4.93;;
62523;SDS011;53689;56.878;60.672;2023-01-29T01:41:44;8.00;;;4.85;;
62523;SDS011;53689;56.878;60.672;2023-01-29T01:47:12;7.93;;;5.20;;
62523;SDS011;53689;56.878;60.672;2023-01-29T01:49:43;7.60;;;5.05;;
62523;SDS011;53689;56.878;60.672;2023-01-29T01:52:12;6.78;;;4.28;;
62523;SDS011;53689;56.878;60.672;2023-01-29T01:54:42;8.30;;;5.72;;
62523;SDS011;53689;56.878;60.672;2023-01-29T01:57:11;7.78;;;4.57;;
62523;SDS011;53689;56.878;60.672;2023-01-29T01:59:45;7.50;;;4.97;;
62523;SDS011;53689;56.878;60.672;2023-01-29T02:02:16;8.93;;;5.45;;
62523;SDS011;53689;56.878;60.672;2023-01-29T02:04:46;6.60;;;4.65;;
62523;SDS011;53689;56.878;60.672;2023-01-29T02:07:14;7.82;;;5.22;;
62523;SDS011;53689;56.878;60.672;2023-01-29T02:09:43;7.00;;;4.95;;
62523;SDS011;53689;56.878;60.672;2023-01-29T02:12:16;8.75;;;5.22;;
62523;SDS011;53689;56.878;60.672;2023-01-29T02:14:46;7.93;;;4.47;;
62523;SDS011;53689;56.878;60.672;2023-01-29T02:17:14;6.85;;;4.82;;
62523;SDS011;53689;56.878;60.672;2023-01-29T02:19:48;9.98;;;4.90;;
62523;SDS011;53689;56.878;60.672;2023-01-29T02:22:44;8.45;;;5.05;;
62523;SDS011;53689;56.878;60.672;2023-01-29T02:26:03;7.45;;;4.47;;
62523;SDS011;53689;56.878;60.672;2023-01-29T02:28:43;10.10;;;5.32;;
62523;SDS011;53689;56.878;60.672;2023-01-29T02:31:19;7.90;;;5.13;;
62523;SDS011;53689;56.878;60.672;2023-01-29T02:33:55;9.07;;;4.88;;
62523;SDS011;53689;56.878;60.672;2023-01-29T02:36:36;7.97;;;4.60;;
62523;SDS011;53689;56.878;60.672;2023-01-29T02:39:12;7.43;;;4.60;;
62523;SDS011;53689;56.878;60.672;2023-01-29T02:41:45;8.60;;;5.38;;
62523;SDS011;53689;56.878;60.672;2023-01-29T02:44:23;6.57;;;4.75;;
62523;SDS011;53689;56.878;60.672;2023-01-29T02:46:59;7.35;;;4.55;;
62523;SDS011;53689;56.878;60.672;2023-01-29T02:49:31;9.80;;;5.47;;
62523;SDS011;53689;56.878;60.672;2023-01-29T02:52:02;7.70;;;5.25;;
62523;SDS011;53689;56.878;60.672;2023-01-29T02:54:36;8.27;;;5.43;;
62523;SDS011;53689;56.878;60.672;2023-01-29T02:57:12;8.63;;;5.25;;
62523;SDS011;53689;56.878;60.672;2023-01-29T02:59:46;8.07;;;4.97;;
62523;SDS011;53689;56.878;60.672;2023-01-29T03:02:18;11.02;;;6.57;;
62523;SDS011;53689;56.878;60.672;2023-01-29T03:04:51;8.25;;;4.90;;
62523;SDS011;53689;56.878;60.672;2023-01-29T03:07:26;10.38;;;5.43;;
62523;SDS011;53689;56.878;60.672;2023-01-29T03:09:58;11.45;;;5.53;;
62523;SDS011;53689;56.878;60.672;2023-01-29T03:12:29;8.27;;;5.28;;
62523;SDS011;53689;56.878;60.672;2023-01-29T03:15:05;10.23;;;5.78;;
62523;SDS011;53689;56.878;60.672;2023-01-29T03:17:39;9.05;;;5.32;;
62523;SDS011;53689;56.878;60.672;2023-01-29T03:20:14;8.10;;;5.45;;
62523;SDS011;53689;56.878;60.672;2023-01-29T03:22:47;8.15;;;4.82;;
62523;SDS011;53689;56.878;60.672;2023-01-29T03:25:19;8.65;;;5.15;;
62523;SDS011;53689;56.878;60.672;2023-01-29T03:27:50;8.82;;;5.65;;
62523;SDS011;53689;56.878;60.672;2023-01-29T03:30:21;9.10;;;5.82;;
62523;SDS011;53689;56.878;60.672;2023-01-29T03:32:58;9.10;;;5.18;;
62523;SDS011;53689;56.878;60.672;2023-01-29T03:35:32;8.27;;;5.30;;
62523;SDS011;53689;56.878;60.672;2023-01-29T03:38:04;8.20;;;4.70;;
62523;SDS011;53689;56.878;60.672;2023-01-29T03:40:35;8.20;;;4.93;;
62523;SDS011;53689;56.878;60.672;2023-01-29T03:43:10;10.45;;;5.63;;
62523;SDS011;53689;56.878;60.672;2023-01-29T03:45:48;10.02;;;5.78;;
62523;SDS011;53689;56.878;60.672;2023-01-29T03:48:27;7.20;;;4.70;;
62523;SDS011;53689;56.878;60.672;2023-01-29T03:51:02;7.63;;;5.47;;
62523;SDS011;53689;56.878;60.672;2023-01-29T03:53:43;8.75;;;5.30;;
62523;SDS011;53689;56.878;60.672;2023-01-29T03:56:19;7.20;;;5.38;;
62523;SDS011;53689;56.878;60.672;2023-01-29T04:02:01;9.75;;;5.53;;
62523;SDS011;53689;56.878;60.672;2023-01-29T04:04:33;9.20;;;4.78;;
62523;SDS011;53689;56.878;60.672;2023-01-29T04:07:03;8.52;;;5.03;;
62523;SDS011;53689;56.878;60.672;2023-01-29T04:09:37;9.32;;;5.18;;
62523;SDS011;53689;56.878;60.672;2023-01-29T04:12:09;8.75;;;5.25;;
62523;SDS011;53689;56.878;60.672;2023-01-29T04:14:42;8.65;;;6.00;;
62523;SDS011;53689;56.878;60.672;2023-01-29T04:17:12;9.32;;;5.93;;
62523;SDS011;53689;56.878;60.672;2023-01-29T04:20:08;9.10;;;5.25;;
62523;SDS011;53689;56.878;60.672;2023-01-29T04:22:46;9.85;;;5.53;;
62523;SDS011;53689;56.878;60.672;2023-01-29T04:25:16;8.35;;;5.07;;
62523;SDS011;53689;56.878;60.672;2023-01-29T04:27:49;11.10;;;6.60;;
62523;SDS011;53689;56.878;60.672;2023-01-29T04:30:26;8.18;;;5.35;;
62523;SDS011;53689;56.878;60.672;2023-01-29T04:33:06;9.43;;;6.10;;
62523;SDS011;53689;56.878;60.672;2023-01-29T04:35:47;8.65;;;5.43;;
62523;SDS011;53689;56.878;60.672;2023-01-29T04:38:31;9.27;;;5.40;;
62523;SDS011;53689;56.878;60.672;2023-01-29T04:41:10;9.73;;;5.78;;
62523;SDS011;53689;56.878;60.672;2023-01-29T04:43:46;10.90;;;5.80;;
62523;SDS011;53689;56.878;60.672;2023-01-29T04:46:25;9.18;;;5.90;;
62523;SDS011;53689;56.878;60.672;2023-01-29T04:49:04;9.73;;;5.57;;
62523;SDS011;53689;56.878;60.672;2023-01-29T04:51:43;12.80;;;6.38;;
62523;SDS011;53689;56.878;60.672;2023-01-29T04:54:19;8.68;;;5.78;;
62523;SDS011;53689;56.878;60.672;2023-01-29T04:56:55;10.23;;;6.43;;
62523;SDS011;53689;56.878;60.672;2023-01-29T04:59:30;9.07;;;5.70;;
62523;SDS011;53689;56.878;60.672;2023-01-29T05:02:02;8.82;;;5.82;;
62523;SDS011;53689;56.878;60.672;2023-01-29T05:04:34;8.82;;;5.13;;
62523;SDS011;53689;56.878;60.672;2023-01-29T05:07:05;9.65;;;5.82;;
62523;SDS011;53689;56.878;60.672;2023-01-29T05:09:37;9.20;;;5.57;;
62523;SDS011;53689;56.878;60.672;2023-01-29T05:12:06;8.90;;;5.68;;
62523;SDS011;53689;56.878;60.672;2023-01-29T05:14:36;10.25;;;5.95;;
62523;SDS011;53689;56.878;60.672;2023-01-29T05:17:11;9.77;;;5.50;;
62523;SDS011;53689;56.878;60.672;2023-01-29T05:19:43;8.80;;;5.95;;
62523;SDS011;53689;56.878;60.672;2023-01-29T05:22:12;9.32;;;5.57;;
62523;SDS011;53689;56.878;60.672;2023-01-29T05:24:42;8.68;;;5.38;;
62523;SDS011;53689;56.878;60.672;2023-01-29T05:27:12;8.15;;;5.38;;
62523;SDS011;53689;56.878;60.672;2023-01-29T05:29:45;8.05;;;5.50;;
62523;SDS011;53689;56.878;60.672;2023-01-29T05:34:43;10.48;;;6.38;;
62523;SDS011;53689;56.878;60.672;2023-01-29T05:39:38;8.07;;;5.50;;
62523;SDS011;53689;56.878;60.672;2023-01-29T05:42:07;8.75;;;5.72;;
62523;SDS011;53689;56.878;60.672;2023-01-29T05:44:34;7.80;;;5.45;;
62523;SDS011;53689;56.878;60.672;2023-01-29T05:47:02;9.02;;;5.55;;
62523;SDS011;53689;56.878;60.672;2023-01-29T05:49:29;9.40;;;5.85;;
62523;SDS011;53689;56.878;60.672;2023-01-29T05:51:59;8.93;;;5.47;;
62523;SDS011;53689;56.878;60.672;2023-01-29T05:54:27;7.88;;;5.32;;
62523;SDS011;53689;56.878;60.672;2023-01-29T05:56:54;9.38;;;6.20;;
62523;SDS011;53689;56.878;60.672;2023-01-29T05:59:23;8.60;;;5.68;;
62523;SDS011;53689;56.878;60.672;2023-01-29T06:01:50;7.95;;;5.53;;
62523;SDS011;53689;56.878;60.672;2023-01-29T06:04:18;9.07;;;5.40;;
62523;SDS011;53689;56.878;60.672;2023-01-29T06:06:46;7.93;;;5.50;;
62523;SDS011;53689;56.878;60.672;2023-01-29T06:09:15;10.27;;;5.85;;
62523;SDS011;53689;56.878;60.672;2023-01-29T06:11:42;9.20;;;5.80;;
62523;SDS011;53689;56.878;60.672;2023-01-29T06:14:10;8.27;;;5.78;;
62523;SDS011;53689;56.878;60.672;2023-01-29T06:16:38;8.50;;;5.72;;
62523;SDS011;53689;56.878;60.672;2023-01-29T06:19:05;10.52;;;6.00;;
62523;SDS011;53689;56.878;60.672;2023-01-29T06:21:33;7.68;;;5.70;;
62523;SDS011;53689;56.878;60.672;2023-01-29T06:24:02;8.65;;;5.88;;
62523;SDS011;53689;56.878;60.672;2023-01-29T06:26:32;8.38;;;5.65;;
62523;SDS011;53689;56.878;60.672;2023-01-29T06:29:00;8.52;;;5.70;;
62523;SDS011;53689;56.878;60.672;2023-01-29T06:31:29;8.27;;;6.18;;
62523;SDS011;53689;56.878;60.672;2023-01-29T06:34:05;8.00;;;5.57;;
62523;SDS011;53689;56.878;60.672;2023-01-29T06:36:34;9.50;;;5.90;;
62523;SDS011;53689;56.878;60.672;2023-01-29T06:39:02;10.68;;;6.53;;
62523;SDS011;53689;56.878;60.672;2023-01-29T06:41:33;9.43;;;6.20;;
62523;SDS011;53689;56.878;60.672;2023-01-29T06:44:01;8.30;;;5.75;;
62523;SDS011;53689;56.878;60.672;2023-01-29T06:46:29;9.60;;;5.80;;
62523;SDS011;53689;56.878;60.672;2023-01-29T06:48:57;9.73;;;5.53;;
62523;SDS011;53689;56.878;60.672;2023-01-29T06:51:25;7.82;;;5.22;;
62523;SDS011;53689;56.878;60.672;2023-01-29T06:53:53;9.20;;;6.20;;
62523;SDS011;53689;56.878;60.672;2023-01-29T06:56:22;8.80;;;6.10;;
62523;SDS011;53689;56.878;60.672;2023-01-29T06:58:52;9.55;;;5.53;;
62523;SDS011;53689;56.878;60.672;2023-01-29T07:01:20;6.95;;;5.10;;
62523;SDS011;53689;56.878;60.672;2023-01-29T07:04:01;7.95;;;5.93;;
62523;SDS011;53689;56.878;60.672;2023-01-29T07:06:30;9.13;;;6.13;;
62523;SDS011;53689;56.878;60.672;2023-01-29T07:08:57;9.05;;;5.50;;
62523;SDS011;53689;56.878;60.672;2023-01-29T07:11:25;9.10;;;6.28;;
62523;SDS011;53689;56.878;60.672;2023-01-29T07:13:54;8.52;;;5.65;;
62523;SDS011;53689;56.878;60.672;2023-01-29T07:16:23;6.97;;;5.55;;
62523;SDS011;53689;56.878;60.672;2023-01-29T07:18:51;8.82;;;6.03;;
62523;SDS011;53689;56.878;60.672;2023-01-29T07:21:19;7.57;;;5.97;;
62523;SDS011;53689;56.878;60.672;2023-01-29T07:23:47;10.00;;;6.63;;
62523;SDS011;53689;56.878;60.672;2023-01-29T07:26:15;8.25;;;5.70;;
62523;SDS011;53689;56.878;60.672;2023-01-29T07:28:44;9.15;;;6.25;;
62523;SDS011;53689;56.878;60.672;2023-01-29T07:31:14;12.60;;;7.10;;
62523;SDS011;53689;56.878;60.672;2023-01-29T07:33:42;9.18;;;6.57;;
62523;SDS011;53689;56.878;60.672;2023-01-29T07:36:11;9.20;;;5.85;;
62523;SDS011;53689;56.878;60.672;2023-01-29T07:38:39;9.38;;;6.35;;
62523;SDS011;53689;56.878;60.672;2023-01-29T07:41:08;8.95;;;6.13;;
62523;SDS011;53689;56.878;60.672;2023-01-29T07:43:37;10.65;;;6.93;;
62523;SDS011;53689;56.878;60.672;2023-01-29T07:46:05;9.00;;;6.40;;
62523;SDS011;53689;56.878;60.672;2023-01-29T07:48:35;9.73;;;6.88;;
62523;SDS011;53689;56.878;60.672;2023-01-29T07:51:04;9.07;;;6.45;;
62523;SDS011;53689;56.878;60.672;2023-01-29T07:53:33;9.73;;;7.17;;
62523;SDS011;53689;56.878;60.672;2023-01-29T07:56:02;8.88;;;5.90;;
62523;SDS011;53689;56.878;60.672;2023-01-29T07:58:30;11.13;;;7.03;;
62523;SDS011;53689;56.878;60.672;2023-01-29T08:00:58;11.70;;;7.32;;
62523;SDS011;53689;56.878;60.672;2023-01-29T08:03:26;10.45;;;6.90;;
62523;SDS011;53689;56.878;60.672;2023-01-29T08:05:55;10.98;;;7.00;;
62523;SDS011;53689;56.878;60.672;2023-01-29T08:08:24;9.32;;;6.68;;
62523;SDS011;53689;56.878;60.672;2023-01-29T08:10:51;11.10;;;6.93;;
62523;SDS011;53689;56.878;60.672;2023-01-29T08:13:19;10.43;;;7.18;;
62523;SDS011;53689;56.878;60.672;2023-01-29T08:15:47;9.00;;;6.80;;
62523;SDS011;53689;56.878;60.672;2023-01-29T08:18:14;14.43;;;8.30;;
62523;SDS011;53689;56.878;60.672;2023-01-29T08:20:42;10.88;;;7.22;;
62523;SDS011;53689;56.878;60.672;2023-01-29T08:23:11;13.27;;;7.22;;
62523;SDS011;53689;56.878;60.672;2023-01-29T08:25:40;10.10;;;6.72;;
62523;SDS011;53689;56.878;60.672;2023-01-29T08:28:08;9.98;;;7.15;;
62523;SDS011;53689;56.878;60.672;2023-01-29T08:30:36;11.65;;;6.95;;
62523;SDS011;53689;56.878;60.672;2023-01-29T08:33:04;11.80;;;6.97;;
62523;SDS011;53689;56.878;60.672;2023-01-29T08:35:32;9.95;;;6.60;;
62523;SDS011;53689;56.878;60.672;2023-01-29T08:38:00;10.23;;;6.75;;
62523;SDS011;53689;56.878;60.672;2023-01-29T08:40:30;13.02;;;7.57;;
62523;SDS011;53689;56.878;60.672;2023-01-29T08:42:59;12.57;;;8.60;;
62523;SDS011;53689;56.878;60.672;2023-01-29T08:45:30;10.52;;;6.78;;
62523;SDS011;53689;56.878;60.672;2023-01-29T08:48:00;8.65;;;6.20;;
62523;SDS011;53689;56.878;60.672;2023-01-29T08:50:28;10.63;;;6.72;;
62523;SDS011;53689;56.878;60.672;2023-01-29T08:52:56;8.75;;;6.15;;
62523;SDS011;53689;56.878;60.672;2023-01-29T08:55:25;11.23;;;6.53;;
62523;SDS011;53689;56.878;60.672;2023-01-29T08:57:54;10.45;;;6.38;;
62523;SDS011;53689;56.878;60.672;2023-01-29T09:00:22;10.35;;;6.18;;
62523;SDS011;53689;56.878;60.672;2023-01-29T09:02:49;11.55;;;6.70;;
62523;SDS011;53689;56.878;60.672;2023-01-29T09:05:17;8.98;;;6.07;;
62523;SDS011;53689;56.878;60.672;2023-01-29T09:07:46;9.55;;;6.88;;
62523;SDS011;53689;56.878;60.672;2023-01-29T09:10:14;9.45;;;6.07;;
62523;SDS011;53689;56.878;60.672;2023-01-29T09:12:43;8.45;;;5.97;;
62523;SDS011;53689;56.878;60.672;2023-01-29T09:15:12;10.13;;;7.07;;
62523;SDS011;53689;56.878;60.672;2023-01-29T09:17:39;8.95;;;5.93;;
62523;SDS011;53689;56.878;60.672;2023-01-29T09:20:08;8.40;;;5.80;;
62523;SDS011;53689;56.878;60.672;2023-01-29T09:22:36;8.77;;;5.57;;
62523;SDS011;53689;56.878;60.672;2023-01-29T09:25:04;8.25;;;5.85;;
62523;SDS011;53689;56.878;60.672;2023-01-29T09:27:33;9.02;;;5.90;;
62523;SDS011;53689;56.878;60.672;2023-01-29T09:30:01;7.65;;;5.50;;
62523;SDS011;53689;56.878;60.672;2023-01-29T09:32:30;11.05;;;5.80;;
62523;SDS011;53689;56.878;60.672;2023-01-29T09:35:20;9.05;;;5.55;;
62523;SDS011;53689;56.878;60.672;2023-01-29T09:37:48;9.68;;;5.80;;
62523;SDS011;53689;56.878;60.672;2023-01-29T09:40:18;9.70;;;5.75;;
62523;SDS011;53689;56.878;60.672;2023-01-29T09:42:52;8.32;;;6.03;;
62523;SDS011;53689;56.878;60.672;2023-01-29T09:45:24;8.48;;;5.95;;
62523;SDS011;53689;56.878;60.672;2023-01-29T09:47:56;10.18;;;6.43;;
62523;SDS011;53689;56.878;60.672;2023-01-29T09:50:28;7.55;;;5.78;;
62523;SDS011;53689;56.878;60.672;2023-01-29T09:52:59;10.40;;;6.72;;
62523;SDS011;53689;56.878;60.672;2023-01-29T09:55:31;8.35;;;6.30;;
62523;SDS011;53689;56.878;60.672;2023-01-29T09:58:04;10.52;;;6.78;;
62523;SDS011;53689;56.878;60.672;2023-01-29T10:00:39;10.13;;;5.88;;
62523;SDS011;53689;56.878;60.672;2023-01-29T10:03:26;9.60;;;6.57;;
62523;SDS011;53689;56.878;60.672;2023-01-29T10:06:11;9.40;;;6.15;;
62523;SDS011;53689;56.878;60.672;2023-01-29T10:08:58;10.05;;;6.15;;
62523;SDS011;53689;56.878;60.672;2023-01-29T10:11:46;11.23;;;6.93;;
62523;SDS011;53689;56.878;60.672;2023-01-29T10:14:28;10.85;;;6.88;;
62523;SDS011;53689;56.878;60.672;2023-01-29T10:17:06;10.73;;;6.43;;
62523;SDS011;53689;56.878;60.672;2023-01-29T10:19:53;10.90;;;6.78;;
62523;SDS011;53689;56.878;60.672;2023-01-29T10:22:44;11.23;;;6.47;;
62523;SDS011;53689;56.878;60.672;2023-01-29T10:25:29;9.45;;;5.78;;
62523;SDS011;53689;56.878;60.672;2023-01-29T10:28:02;9.57;;;6.50;;
62523;SDS011;53689;56.878;60.672;2023-01-29T10:30:43;10.27;;;6.30;;
62523;SDS011;53689;56.878;60.672;2023-01-29T10:33:19;9.27;;;5.88;;
62523;SDS011;53689;56.878;60.672;2023-01-29T10:35:54;10.32;;;6.53;;
62523;SDS011;53689;56.878;60.672;2023-01-29T10:41:16;9.68;;;6.50;;
62523;SDS011;53689;56.878;60.672;2023-01-29T10:43:54;11.50;;;6.38;;
62523;SDS011;53689;56.878;60.672;2023-01-29T10:46:35;8.40;;;6.05;;
62523;SDS011;53689;56.878;60.672;2023-01-29T10:49:22;9.63;;;6.18;;
62523;SDS011;53689;56.878;60.672;2023-01-29T10:54:50;10.03;;;6.63;;
62523;SDS011;53689;56.878;60.672;2023-01-29T10:57:36;11.43;;;6.45;;
62523;SDS011;53689;56.878;60.672;2023-01-29T11:00:16;9.55;;;5.95;;
62523;SDS011;53689;56.878;60.672;2023-01-29T11:02:48;9.95;;;6.75;;
62523;SDS011;53689;56.878;60.672;2023-01-29T11:05:22;10.77;;;5.93;;
62523;SDS011;53689;56.878;60.672;2023-01-29T11:07:58;9.80;;;6.35;;
62523;SDS011;53689;56.878;60.672;2023-01-29T11:10:32;8.07;;;5.80;;
62523;SDS011;53689;56.878;60.672;2023-01-29T11:13:05;12.70;;;6.18;;
62523;SDS011;53689;56.878;60.672;2023-01-29T11:15:39;11.20;;;5.80;;
62523;SDS011;53689;56.878;60.672;2023-01-29T11:18:07;11.73;;;6.82;;
62523;SDS011;53689;56.878;60.672;2023-01-29T11:20:37;11.43;;;6.32;;
62523;SDS011;53689;56.878;60.672;2023-01-29T11:23:17;8.88;;;5.97;;
62523;SDS011;53689;56.878;60.672;2023-01-29T11:25:51;9.75;;;6.05;;
62523;SDS011;53689;56.878;60.672;2023-01-29T11:31:14;11.93;;;6.85;;
62523;SDS011;53689;56.878;60.672;2023-01-29T11:33:44;9.98;;;6.05;;
62523;SDS011;53689;56.878;60.672;2023-01-29T11:38:58;11.30;;;6.75;;
62523;SDS011;53689;56.878;60.672;2023-01-29T11:41:41;15.60;;;6.35;;
62523;SDS011;53689;56.878;60.672;2023-01-29T11:44:18;9.77;;;5.75;;
62523;SDS011;53689;56.878;60.672;2023-01-29T11:46:47;10.68;;;6.75;;
62523;SDS011;53689;56.878;60.672;2023-01-29T11:49:24;10.38;;;6.28;;
62523;SDS011;53689;56.878;60.672;2023-01-29T11:51:58;12.02;;;6.00;;
62523;SDS011;53689;56.878;60.672;2023-01-29T11:54:30;11.98;;;6.85;;
62523;SDS011;53689;56.878;60.672;2023-01-29T11:57:02;10.95;;;6.68;;
62523;SDS011;53689;56.878;60.672;2023-01-29T11:59:40;9.02;;;6.15;;
62523;SDS011;53689;56.878;60.672;2023-01-29T12:02:12;10.90;;;5.80;;
62523;SDS011;53689;56.878;60.672;2023-01-29T12:04:49;14.85;;;7.03;;
62523;SDS011;53689;56.878;60.672;2023-01-29T12:07:18;9.88;;;6.55;;
62523;SDS011;53689;56.878;60.672;2023-01-29T12:09:52;11.77;;;6.20;;
62523;SDS011;53689;56.878;60.672;2023-01-29T12:12:29;12.07;;;6.90;;
62523;SDS011;53689;56.878;60.672;2023-01-29T12:15:20;11.48;;;6.65;;
62523;SDS011;53689;56.878;60.672;2023-01-29T12:17:55;11.80;;;6.65;;
62523;SDS011;53689;56.878;60.672;2023-01-29T12:20:29;11.02;;;6.90;;
62523;SDS011;53689;56.878;60.672;2023-01-29T12:23:04;12.02;;;6.60;;
62523;SDS011;53689;56.878;60.672;2023-01-29T12:25:46;13.25;;;6.70;;
62523;SDS011;53689;56.878;60.672;2023-01-29T12:28:27;11.50;;;6.30;;
62523;SDS011;53689;56.878;60.672;2023-01-29T12:31:16;12.07;;;6.47;;
62523;SDS011;53689;56.878;60.672;2023-01-29T12:33:56;11.30;;;6.63;;
62523;SDS011;53689;56.878;60.672;2023-01-29T12:36:32;11.43;;;5.97;;
62523;SDS011;53689;56.878;60.672;2023-01-29T12:39:04;11.23;;;6.25;;
62523;SDS011;53689;56.878;60.672;2023-01-29T12:41:35;12.57;;;6.53;;
62523;SDS011;53689;56.878;60.672;2023-01-29T12:44:10;13.05;;;7.18;;
62523;SDS011;53689;56.878;60.672;2023-01-29T12:46:44;11.85;;;5.93;;
62523;SDS011;53689;56.878;60.672;2023-01-29T12:49:16;12.57;;;6.47;;
62523;SDS011;53689;56.878;60.672;2023-01-29T12:51:48;10.00;;;6.35;;
62523;SDS011;53689;56.878;60.672;2023-01-29T12:54:22;11.07;;;6.75;;
62523;SDS011;53689;56.878;60.672;2023-01-29T12:57:01;12.63;;;6.15;;
62523;SDS011;53689;56.878;60.672;2023-01-29T12:59:35;9.68;;;6.05;;
62523;SDS011;53689;56.878;60.672;2023-01-29T13:02:13;10.60;;;6.15;;
62523;SDS011;53689;56.878;60.672;2023-01-29T13:04:49;10.13;;;6.03;;
62523;SDS011;53689;56.878;60.672;2023-01-29T13:07:24;12.65;;;7.20;;
62523;SDS011;53689;56.878;60.672;2023-01-29T13:10:00;9.45;;;6.22;;
62523;SDS011;53689;56.878;60.672;2023-01-29T13:12:35;10.15;;;6.18;;
62523;SDS011;53689;56.878;60.672;2023-01-29T13:15:11;10.02;;;5.80;;
62523;SDS011;53689;56.878;60.672;2023-01-29T13:17:47;10.98;;;6.45;;
62523;SDS011;53689;56.878;60.672;2023-01-29T13:20:20;9.70;;;6.05;;
62523;SDS011;53689;56.878;60.672;2023-01-29T13:22:51;14.30;;;6.60;;
62523;SDS011;53689;56.878;60.672;2023-01-29T13:25:22;12.20;;;6.75;;
62523;SDS011;53689;56.878;60.672;2023-01-29T13:27:51;12.52;;;7.10;;
62523;SDS011;53689;56.878;60.672;2023-01-29T13:30:23;10.68;;;6.10;;
62523;SDS011;53689;56.878;60.672;2023-01-29T13:32:52;10.75;;;6.40;;
62523;SDS011;53689;56.878;60.672;2023-01-29T13:35:21;10.50;;;6.57;;
62523;SDS011;53689;56.878;60.672;2023-01-29T13:37:49;11.68;;;5.93;;
62523;SDS011;53689;56.878;60.672;2023-01-29T13:40:20;10.90;;;6.35;;
62523;SDS011;53689;56.878;60.672;2023-01-29T13:42:53;10.60;;;6.35;;
62523;SDS011;53689;56.878;60.672;2023-01-29T13:45:25;12.02;;;6.47;;
62523;SDS011;53689;56.878;60.672;2023-01-29T13:48:07;13.40;;;6.07;;
62523;SDS011;53689;56.878;60.672;2023-01-29T13:50:37;11.25;;;6.15;;
62523;SDS011;53689;56.878;60.672;2023-01-29T13:53:16;12.25;;;6.53;;
62523;SDS011;53689;56.878;60.672;2023-01-29T13:55:48;10.85;;;6.47;;
62523;SDS011;53689;56.878;60.672;2023-01-29T13:58:18;9.65;;;6.22;;
62523;SDS011;53689;56.878;60.672;2023-01-29T14:04:21;10.82;;;6.25;;
62523;SDS011;53689;56.878;60.672;2023-01-29T14:06:52;12.02;;;6.53;;
62523;SDS011;53689;56.878;60.672;2023-01-29T14:09:33;12.63;;;7.00;;
62523;SDS011;53689;56.878;60.672;2023-01-29T14:12:30;10.95;;;6.65;;
62523;SDS011;53689;56.878;60.672;2023-01-29T14:15:30;11.38;;;6.20;;
62523;SDS011;53689;56.878;60.672;2023-01-29T14:18:04;13.75;;;7.03;;
62523;SDS011;53689;56.878;60.672;2023-01-29T14:20:47;9.20;;;6.15;;
62523;SDS011;53689;56.878;60.672;2023-01-29T14:23:22;11.65;;;6.80;;
62523;SDS011;53689;56.878;60.672;2023-01-29T14:25:55;12.35;;;6.72;;
62523;SDS011;53689;56.878;60.672;2023-01-29T14:28:27;9.88;;;6.22;;
62523;SDS011;53689;56.878;60.672;2023-01-29T14:30:58;10.13;;;6.55;;
62523;SDS011;53689;56.878;60.672;2023-01-29T14:33:27;10.73;;;6.30;;
62523;SDS011;53689;56.878;60.672;2023-01-29T14:36:02;9.40;;;6.00;;
62523;SDS011;53689;56.878;60.672;2023-01-29T14:38:32;10.95;;;6.40;;
62523;SDS011;53689;56.878;60.672;2023-01-29T14:43:52;10.52;;;6.80;;
62523;SDS011;53689;56.878;60.672;2023-01-29T14:47:00;10.95;;;6.38;;
62523;SDS011;53689;56.878;60.672;2023-01-29T14:49:47;10.73;;;6.82;;
62523;SDS011;53689;56.878;60.672;2023-01-29T14:52:15;10.02;;;6.57;;
62523;SDS011;53689;56.878;60.672;2023-01-29T14:54:45;11.55;;;7.07;;
62523;SDS011;53689;56.878;60.672;2023-01-29T14:57:15;9.48;;;6.47;;
62523;SDS011;53689;56.878;60.672;2023-01-29T15:02:18;14.20;;;8.05;;
62523;SDS011;53689;56.878;60.672;2023-01-29T15:04:49;13.30;;;6.85;;
62523;SDS011;53689;56.878;60.672;2023-01-29T15:07:24;11.38;;;6.68;;
62523;SDS011;53689;56.878;60.672;2023-01-29T15:09:57;15.10;;;7.55;;
62523;SDS011;53689;56.878;60.672;2023-01-29T15:12:48;12.55;;;6.32;;
62523;SDS011;53689;56.878;60.672;2023-01-29T15:15:24;11.73;;;6.80;;
62523;SDS011;53689;56.878;60.672;2023-01-29T15:18:02;11.18;;;6.55;;
62523;SDS011;53689;56.878;60.672;2023-01-29T15:20:34;10.10;;;6.20;;
62523;SDS011;53689;56.878;60.672;2023-01-29T15:23:03;11.93;;;6.27;;
62523;SDS011;53689;56.878;60.672;2023-01-29T15:25:54;10.73;;;6.28;;
62523;SDS011;53689;56.878;60.672;2023-01-29T15:28:24;11.18;;;6.10;;
62523;SDS011;53689;56.878;60.672;2023-01-29T15:30:55;9.68;;;5.93;;